TimeCET,TemperatureF,Dew PointF,Humidity,Sea Level PressureIn,VisibilityMPH,Wind Direction,Wind SpeedMPH,Gust SpeedMPH,PrecipitationIn,Events,Conditions,WindDirDegrees,DateUTC
12:25 AM,32.0,23.0,69,30.09,6.2,ENE,9.2,-,N/A,,Mostly Cloudy,60,2013-02-23 23:25:00
1:00 AM,33,24,58,30.12,7,NE,11.2,,,,Mostly Cloudy,40,2013-02-24 00:00:00
1:25 AM,33.8,24.8,70,30.09,6.2,NE,10.4,-,N/A,,Overcast,40,2013-02-24 00:25:00
1:54 AM,33.8,24.8,70,30.09,6.2,NNE,13.8,-,N/A,Snow,Light Snow,30,2013-02-24 00:54:00
2:04 AM,33.8,26.6,75,30.09,5.0,NE,15.0,-,N/A,Snow,Light Snow,40,2013-02-24 01:04:00
2:09 AM,33.8,26.6,75,30.09,5.0,NE,15.0,-,N/A,Snow,Light Snow,40,2013-02-24 01:09:00
2:10 AM,33.8,26.6,75,30.09,4.3,NE,15.0,-,N/A,Snow,Light Snow,40,2013-02-24 01:10:00
2:25 AM,33.8,28.4,81,30.09,3.7,NE,17.3,-,N/A,Snow,Light Snow,40,2013-02-24 01:25:00
2:55 AM,33.8,28.4,81,30.09,5.6,NNE,16.1,-,N/A,Snow,Light Snow,30,2013-02-24 01:55:00
3:25 AM,33.8,28.4,81,30.09,5.6,NE,16.1,-,N/A,Snow,Light Snow,40,2013-02-24 02:25:00
3:55 AM,33.8,28.4,81,30.09,5.0,NE,16.1,-,N/A,Snow,Light Snow,40,2013-02-24 02:55:00
4:00 AM,34,28,72,30.10,5,NE,15.7,,,Snow,Light Snow,40,2013-02-24 03:00:00
4:25 AM,33.8,28.4,81,30.06,5.6,NE,16.1,-,N/A,Snow,Light Snow,40,2013-02-24 03:25:00
4:55 AM,33.8,28.4,81,30.06,5.0,NE,17.3,-,N/A,Snow,Light Snow,40,2013-02-24 03:55:00
5:18 AM,33.8,30.2,87,30.09,3.7,NE,15.0,-,N/A,Snow,Light Snow Grains,40,2013-02-24 04:18:00
5:37 AM,32.0,30.2,93,30.06,-9999.0,NE,16.1,-,N/A,Snow,Light Snow,40,2013-02-24 04:37:00
7:00 AM,32,31,97,30.09,2,NE,15.7,,,Snow,Light Snow,40,2013-02-24 06:00:00
7:05 AM,32.0,30.2,93,30.09,-9999.0,NNE,17.3,-,N/A,Snow,Light Snow,30,2013-02-24 06:05:00
7:10 AM,32.0,30.2,93,30.09,-9999.0,NNE,18.4,-,N/A,Snow,Light Snow,30,2013-02-24 06:10:00
7:25 AM,32.0,30.2,93,30.09,1.2,NNE,18.4,-,N/A,Snow,Light Snow,30,2013-02-24 06:25:00
7:31 AM,32.0,32.0,100,30.06,0.9,NNE,17.3,-,N/A,Snow,Light Snow,30,2013-02-24 06:31:00
7:46 AM,32.0,32.0,100,30.09,1.1,NNE,18.4,-,N/A,Snow,Light Snow,30,2013-02-24 06:46:00
7:55 AM,32.0,32.0,100,30.09,1.4,NNE,17.3,-,N/A,Snow,Light Snow,30,2013-02-24 06:55:00
8:25 AM,32.0,32.0,100,30.09,1.0,NNE,20.7,-,N/A,Snow,Light Snow,20,2013-02-24 07:25:00
8:28 AM,32.0,32.0,100,30.09,0.9,NNE,19.6,-,N/A,Snow,Light Snow,20,2013-02-24 07:28:00
8:29 AM,32.0,32.0,100,30.09,1.0,NNE,19.6,-,N/A,Snow,Light Snow,20,2013-02-24 07:29:00
8:55 AM,33.8,32.0,93,30.09,1.0,NNE,19.6,-,N/A,Snow,Light Snow,30,2013-02-24 07:55:00
9:23 AM,33.8,32.0,93,30.09,2.5,NNE,18.4,-,N/A,Snow,Light Snow,30,2013-02-24 08:23:00
9:25 AM,33.8,32.0,93,30.09,2.8,NNE,18.4,-,N/A,Snow,Light Snow,30,2013-02-24 08:25:00
9:40 AM,33.8,32.0,93,30.09,1.2,NNE,20.7,-,N/A,Snow,Light Snow,30,2013-02-24 08:40:00
9:55 AM,33.8,30.2,87,30.09,1.2,NE,21.9,-,N/A,Snow,Light Snow,40,2013-02-24 08:55:00
10:00 AM,33,31,89,30.11,1,NE,22.4,,,Snow,Light Snow,40,2013-02-24 09:00:00
10:25 AM,33.8,32.0,93,30.09,1.9,NE,15.0,-,N/A,Snow,Light Snow,40,2013-02-24 09:25:00
10:39 AM,33.8,30.2,87,30.09,2.5,NNE,20.7,-,N/A,Snow,Light Snow Grains,30,2013-02-24 09:39:00
10:55 AM,33.8,32.0,93,30.09,3.1,NE,19.6,-,N/A,Snow,Light Snow Grains,40,2013-02-24 09:55:00
11:25 AM,35.6,30.2,81,30.09,3.1,NNE,16.1,-,N/A,Snow,Light Snow,30,2013-02-24 10:25:00
11:55 AM,35.6,32.0,87,30.09,2.8,NNE,18.4,-,N/A,Rain-Snow,Light Rain,20,2013-02-24 10:55:00
12:25 PM,35.6,32.0,87,30.09,2.8,NNE,17.3,-,N/A,Rain-Snow,Light Rain,20,2013-02-24 11:25:00
12:55 PM,35.6,32.0,87,30.09,2.5,NNE,18.4,-,N/A,Rain-Snow,Light Rain,30,2013-02-24 11:55:00
1:00 PM,35,33,90,30.12,2,NNE,20.1,,,Snow,Light Snow,30,2013-02-24 12:00:00
1:28 PM,33.8,32.0,93,30.09,1.9,NNE,18.4,-,N/A,Rain-Snow,Light Rain,20,2013-02-24 12:28:00
1:33 PM,33.8,33.8,100,30.09,2.8,NNE,19.6,-,N/A,Rain-Snow,Light Rain,20,2013-02-24 12:33:00
2:53 PM,33.8,32.0,93,30.09,1.9,NNE,18.4,-,N/A,Rain-Snow,Rain,30,2013-02-24 13:53:00
2:55 PM,33.8,32.0,93,30.09,1.9,NNE,18.4,-,N/A,Rain-Snow,Light Rain,30,2013-02-24 13:55:00
3:25 PM,35.6,33.8,93,30.09,2.5,NNE,16.1,-,N/A,Rain-Snow,Light Rain,30,2013-02-24 14:25:00
3:27 PM,35.6,33.8,93,30.09,2.5,NNE,16.1,-,N/A,Rain-Snow,Light Rain,30,2013-02-24 14:27:00
3:55 PM,35.6,33.8,93,30.09,2.8,NNE,20.7,-,N/A,Rain-Snow,Light Rain,30,2013-02-24 14:55:00
4:00 PM,35,33,92,30.11,3,NNE,20.1,,,Snow,Light Snow,20,2013-02-24 15:00:00
4:25 PM,35.6,33.8,93,30.09,2.5,NNE,18.4,-,N/A,Rain-Snow,Rain,20,2013-02-24 15:25:00
4:55 PM,35.6,33.8,93,30.09,2.5,NNE,17.3,-,N/A,Rain-Snow,Rain,30,2013-02-24 15:55:00
5:25 PM,33.8,33.8,100,30.09,-9999.0,NNE,19.6,-,N/A,Rain-Snow,Rain,30,2013-02-24 16:25:00
5:38 PM,33.8,32.0,93,30.09,1.7,NNE,17.3,-,N/A,Rain-Snow,Rain,30,2013-02-24 16:38:00
6:25 PM,33.8,33.8,100,30.12,2.8,NNE,17.3,-,N/A,Rain-Snow,Light Rain,20,2013-02-24 17:25:00
6:55 PM,35.6,33.8,93,30.12,3.1,NNE,19.6,-,N/A,Rain-Snow,Light Rain,20,2013-02-24 17:55:00
7:00 PM,35,33,92,30.14,3,NNE,20.1,,,Snow,Light Snow,20,2013-02-24 18:00:00
7:25 PM,35.6,33.8,93,30.12,2.5,NNE,18.4,-,N/A,Rain,Light Rain,30,2013-02-24 18:25:00
7:55 PM,35.6,33.8,93,30.12,3.7,NNE,18.4,-,N/A,Rain,Light Rain,30,2013-02-24 18:55:00
8:25 PM,35.6,33.8,93,30.12,3.7,NE,15.0,-,N/A,Rain,Light Rain,40,2013-02-24 19:25:00
8:54 PM,33.8,33.8,100,30.12,2.5,NE,16.1,-,N/A,Rain-Snow,Rain,40,2013-02-24 19:54:00
8:55 PM,33.8,33.8,100,30.12,2.5,NE,16.1,-,N/A,Rain-Snow,Rain,40,2013-02-24 19:55:00
9:25 PM,35.6,33.8,93,30.12,3.7,NNE,16.1,-,N/A,,Light Drizzle,30,2013-02-24 20:25:00
10:00 PM,35,33,92,30.15,3,NNE,17.9,,,Rain,Light Drizzle,30,2013-02-24 21:00:00
10:25 PM,35.6,33.8,93,30.15,2.8,NNE,16.1,-,N/A,Rain,Light Rain,30,2013-02-24 21:25:00
10:55 PM,33.8,33.8,100,30.15,3.1,NE,15.0,-,N/A,Rain,Light Rain,40,2013-02-24 21:55:00
11:25 PM,35.6,33.8,93,30.15,4.3,NNE,17.3,-,N/A,Rain,Light Rain,30,2013-02-24 22:25:00
11:55 PM,35.6,33.8,93,30.15,6.2,NE,13.8,-,N/A,Rain,Light Rain,40,2013-02-24 22:55:00